Romeo, MI

7:20 PM EDT on August 29, 2016 (GMT -0400)
Washington, MI | | Change Station

Elev 846 ft 42.79 °N, 83.04 °W | Updated 3 seconds ago

Partly Cloudy
Partly Cloudy
76.5 °F
Feels Like 78 °F
N
0.0
Wind Variable Wind from SE
Gusts 0.0 mph

Today
High -- | Low -- °F
--% Chance of Precip.
Yesterday
High -- | Low -- °F
Precip. -- in
Pressure 30.20 in
Visibility 10.0 miles
Clouds Few 4500 ft
Few 25000 ft
Heat Index 78 °F
Dew Point 66 °F
Humidity 70%
Rainfall 0.00 in
Snow Depth Not available.
6:54 AM 8:10 PM
Waning Crescent, 6% visible
METAR KMTC 292258Z 16004KT 10SM FEW045 FEW250 25/19 A3019 RMK AO2A SLP225 T02520194
Pressure 30.20 in
Visibility 10.0 miles
Clouds Few 4500 ft
Few 25000 ft
Heat Index 78 °F
Dew Point 66 °F
Humidity 70%
Rainfall 0.00 in
Snow Depth Not available.
6:54 AM 8:10 PM
Waning Crescent, 6% visible
METAR KMTC 292258Z 16004KT 10SM FEW045 FEW250 25/19 A3019 RMK AO2A SLP225 T02520194

10-Day Weather Forecast

Almanac

Astronomy

Aug. 29, 2016 Rise Set
Actual Time
Civil Twilight
Nautical Twilight
Astronomical Twilight
Moon
Length of Visible Light
Length of Day
Tomorrow will be .
, % of the Moon is Illuminated

Today's Extremes

State Highs State Lows

Community

WunderPhotos

Upload Photos

1,935,692 photos uploaded!

WunderBlog® & News

Nearby

Air Quality

  Air Quality AQ Index Pollutant
Not available.

Snow Depth

Station Depth Elevation

Earthquake Activity

City Distance Mag. Time & Date
Minimum magnitude displayed is 2.5.

Coastal Water Temperatures

Place Temperature

Stations

Nearby Weather Stations

Station Location Temp. Windchill Dew Point Humidity Wind Precip. Elev Updated Type
                   

Watches & Warnings

There are currently no watches in effect.